sensor_id;sensor_type;location;lat;lon;timestamp;P1;durP1;ratioP1;P2;durP2;ratioP2
24145;SDS011;12308;50.948;4.706;2023-05-10T00:02:06;37.17;;;19.65;;
24145;SDS011;12308;50.948;4.706;2023-05-10T00:04:32;35.33;;;18.67;;
24145;SDS011;12308;50.948;4.706;2023-05-10T00:06:58;32.15;;;17.80;;
24145;SDS011;12308;50.948;4.706;2023-05-10T00:09:24;33.92;;;18.45;;
24145;SDS011;12308;50.948;4.706;2023-05-10T00:11:49;35.15;;;17.02;;
24145;SDS011;12308;50.948;4.706;2023-05-10T00:14:15;34.10;;;17.77;;
24145;SDS011;12308;50.948;4.706;2023-05-10T00:16:41;29.05;;;15.98;;
24145;SDS011;12308;50.948;4.706;2023-05-10T00:19:07;34.35;;;16.23;;
24145;SDS011;12308;50.948;4.706;2023-05-10T00:21:33;28.50;;;15.25;;
24145;SDS011;12308;50.948;4.706;2023-05-10T00:23:59;35.05;;;15.63;;
24145;SDS011;12308;50.948;4.706;2023-05-10T00:26:25;32.58;;;15.50;;
24145;SDS011;12308;50.948;4.706;2023-05-10T00:28:50;34.38;;;14.68;;
24145;SDS011;12308;50.948;4.706;2023-05-10T00:31:16;27.20;;;14.77;;
24145;SDS011;12308;50.948;4.706;2023-05-10T00:33:42;28.05;;;14.13;;
24145;SDS011;12308;50.948;4.706;2023-05-10T00:36:08;30.65;;;14.05;;
24145;SDS011;12308;50.948;4.706;2023-05-10T00:38:33;30.98;;;13.10;;
24145;SDS011;12308;50.948;4.706;2023-05-10T00:40:59;33.15;;;13.52;;
24145;SDS011;12308;50.948;4.706;2023-05-10T00:43:25;29.73;;;14.32;;
24145;SDS011;12308;50.948;4.706;2023-05-10T00:45:50;25.25;;;13.15;;
24145;SDS011;12308;50.948;4.706;2023-05-10T00:48:17;30.33;;;14.23;;
24145;SDS011;12308;50.948;4.706;2023-05-10T00:50:43;27.90;;;14.80;;
24145;SDS011;12308;50.948;4.706;2023-05-10T00:53:09;26.92;;;14.82;;
24145;SDS011;12308;50.948;4.706;2023-05-10T00:55:35;29.33;;;14.30;;
24145;SDS011;12308;50.948;4.706;2023-05-10T00:58:02;33.88;;;15.32;;
24145;SDS011;12308;50.948;4.706;2023-05-10T01:00:28;35.05;;;15.05;;
24145;SDS011;12308;50.948;4.706;2023-05-10T01:02:54;41.42;;;16.25;;
24145;SDS011;12308;50.948;4.706;2023-05-10T01:05:20;40.22;;;15.55;;
24145;SDS011;12308;50.948;4.706;2023-05-10T01:07:46;31.63;;;15.63;;
24145;SDS011;12308;50.948;4.706;2023-05-10T01:10:13;33.20;;;16.02;;
24145;SDS011;12308;50.948;4.706;2023-05-10T01:12:40;40.47;;;15.98;;
24145;SDS011;12308;50.948;4.706;2023-05-10T01:15:07;33.03;;;16.95;;
24145;SDS011;12308;50.948;4.706;2023-05-10T01:17:36;32.33;;;16.25;;
24145;SDS011;12308;50.948;4.706;2023-05-10T01:20:05;36.55;;;17.05;;
24145;SDS011;12308;50.948;4.706;2023-05-10T01:40:45;37.17;;;17.55;;
24145;SDS011;12308;50.948;4.706;2023-05-10T01:43:17;32.65;;;18.05;;
24145;SDS011;12308;50.948;4.706;2023-05-10T01:46:00;37.95;;;18.50;;
24145;SDS011;12308;50.948;4.706;2023-05-10T01:48:35;45.30;;;19.17;;
24145;SDS011;12308;50.948;4.706;2023-05-10T01:51:05;41.88;;;19.45;;
24145;SDS011;12308;50.948;4.706;2023-05-10T01:53:31;42.63;;;18.75;;
24145;SDS011;12308;50.948;4.706;2023-05-10T01:56:01;45.40;;;18.55;;
24145;SDS011;12308;50.948;4.706;2023-05-10T01:58:29;40.60;;;19.17;;
24145;SDS011;12308;50.948;4.706;2023-05-10T02:00:58;35.53;;;19.52;;
24145;SDS011;12308;50.948;4.706;2023-05-10T02:03:28;48.63;;;21.90;;
24145;SDS011;12308;50.948;4.706;2023-05-10T02:05:56;43.05;;;19.98;;
24145;SDS011;12308;50.948;4.706;2023-05-10T02:08:22;36.95;;;19.90;;
24145;SDS011;12308;50.948;4.706;2023-05-10T02:10:50;41.90;;;20.45;;
24145;SDS011;12308;50.948;4.706;2023-05-10T02:13:18;44.10;;;20.48;;
24145;SDS011;12308;50.948;4.706;2023-05-10T02:15:45;45.08;;;20.63;;
24145;SDS011;12308;50.948;4.706;2023-05-10T02:18:13;39.42;;;21.10;;
24145;SDS011;12308;50.948;4.706;2023-05-10T02:20:40;41.75;;;21.23;;
24145;SDS011;12308;50.948;4.706;2023-05-10T02:23:08;46.10;;;22.60;;
24145;SDS011;12308;50.948;4.706;2023-05-10T02:25:36;41.50;;;21.20;;
24145;SDS011;12308;50.948;4.706;2023-05-10T02:28:04;41.83;;;21.02;;
24145;SDS011;12308;50.948;4.706;2023-05-10T02:30:31;42.08;;;21.15;;
24145;SDS011;12308;50.948;4.706;2023-05-10T02:32:59;51.35;;;22.38;;
24145;SDS011;12308;50.948;4.706;2023-05-10T02:35:27;45.35;;;21.90;;
24145;SDS011;12308;50.948;4.706;2023-05-10T02:37:53;42.10;;;22.15;;
24145;SDS011;12308;50.948;4.706;2023-05-10T02:40:19;44.47;;;21.10;;
24145;SDS011;12308;50.948;4.706;2023-05-10T02:42:47;41.10;;;22.25;;
24145;SDS011;12308;50.948;4.706;2023-05-10T02:45:19;45.60;;;22.70;;
24145;SDS011;12308;50.948;4.706;2023-05-10T02:47:48;47.25;;;22.88;;
24145;SDS011;12308;50.948;4.706;2023-05-10T02:50:14;47.42;;;23.48;;
24145;SDS011;12308;50.948;4.706;2023-05-10T02:52:42;44.20;;;23.25;;
24145;SDS011;12308;50.948;4.706;2023-05-10T02:55:12;46.55;;;22.50;;
24145;SDS011;12308;50.948;4.706;2023-05-10T02:57:46;47.10;;;24.00;;
24145;SDS011;12308;50.948;4.706;2023-05-10T03:00:17;45.95;;;23.52;;
24145;SDS011;12308;50.948;4.706;2023-05-10T03:02:43;43.58;;;23.15;;
24145;SDS011;12308;50.948;4.706;2023-05-10T03:05:08;42.15;;;22.05;;
24145;SDS011;12308;50.948;4.706;2023-05-10T03:07:34;43.75;;;24.52;;
24145;SDS011;12308;50.948;4.706;2023-05-10T03:10:00;46.28;;;22.92;;
24145;SDS011;12308;50.948;4.706;2023-05-10T03:12:31;45.30;;;22.63;;
24145;SDS011;12308;50.948;4.706;2023-05-10T03:15:22;42.28;;;23.52;;
24145;SDS011;12308;50.948;4.706;2023-05-10T03:18:33;41.10;;;23.02;;
24145;SDS011;12308;50.948;4.706;2023-05-10T03:21:04;48.97;;;24.58;;
24145;SDS011;12308;50.948;4.706;2023-05-10T03:23:35;48.25;;;22.90;;
24145;SDS011;12308;50.948;4.706;2023-05-10T03:26:06;47.13;;;23.20;;
24145;SDS011;12308;50.948;4.706;2023-05-10T03:28:33;47.28;;;24.02;;
24145;SDS011;12308;50.948;4.706;2023-05-10T03:31:00;46.03;;;23.38;;
24145;SDS011;12308;50.948;4.706;2023-05-10T03:33:29;49.63;;;23.77;;
24145;SDS011;12308;50.948;4.706;2023-05-10T03:35:55;46.58;;;22.48;;
24145;SDS011;12308;50.948;4.706;2023-05-10T03:38:20;40.20;;;21.85;;
24145;SDS011;12308;50.948;4.706;2023-05-10T03:40:46;50.67;;;23.92;;
24145;SDS011;12308;50.948;4.706;2023-05-10T03:43:12;45.35;;;22.58;;
24145;SDS011;12308;50.948;4.706;2023-05-10T03:45:38;49.47;;;22.50;;
24145;SDS011;12308;50.948;4.706;2023-05-10T03:48:03;46.28;;;22.20;;
24145;SDS011;12308;50.948;4.706;2023-05-10T03:50:29;44.35;;;23.90;;
24145;SDS011;12308;50.948;4.706;2023-05-10T03:52:55;48.35;;;25.25;;
24145;SDS011;12308;50.948;4.706;2023-05-10T03:55:22;51.33;;;24.42;;
24145;SDS011;12308;50.948;4.706;2023-05-10T03:57:48;46.70;;;23.35;;
24145;SDS011;12308;50.948;4.706;2023-05-10T04:00:14;50.00;;;23.13;;
24145;SDS011;12308;50.948;4.706;2023-05-10T04:02:40;55.13;;;25.02;;
24145;SDS011;12308;50.948;4.706;2023-05-10T04:05:06;52.92;;;24.92;;
24145;SDS011;12308;50.948;4.706;2023-05-10T04:07:32;54.95;;;24.55;;
24145;SDS011;12308;50.948;4.706;2023-05-10T04:09:58;56.90;;;25.63;;
24145;SDS011;12308;50.948;4.706;2023-05-10T04:12:24;60.13;;;27.95;;
24145;SDS011;12308;50.948;4.706;2023-05-10T04:14:49;58.35;;;28.42;;
24145;SDS011;12308;50.948;4.706;2023-05-10T04:17:16;74.50;;;29.40;;
24145;SDS011;12308;50.948;4.706;2023-05-10T04:19:41;65.45;;;29.48;;
24145;SDS011;12308;50.948;4.706;2023-05-10T04:22:07;60.33;;;29.33;;
24145;SDS011;12308;50.948;4.706;2023-05-10T04:24:33;59.65;;;26.77;;
24145;SDS011;12308;50.948;4.706;2023-05-10T04:26:59;64.95;;;30.65;;
24145;SDS011;12308;50.948;4.706;2023-05-10T04:29:25;74.88;;;30.58;;
24145;SDS011;12308;50.948;4.706;2023-05-10T04:31:52;75.90;;;32.15;;
24145;SDS011;12308;50.948;4.706;2023-05-10T04:34:19;77.60;;;33.85;;
24145;SDS011;12308;50.948;4.706;2023-05-10T04:36:45;76.13;;;33.10;;
24145;SDS011;12308;50.948;4.706;2023-05-10T04:39:11;81.38;;;32.28;;
24145;SDS011;12308;50.948;4.706;2023-05-10T04:41:37;78.35;;;34.22;;
24145;SDS011;12308;50.948;4.706;2023-05-10T04:44:03;81.38;;;33.72;;
24145;SDS011;12308;50.948;4.706;2023-05-10T04:46:29;86.15;;;34.20;;
24145;SDS011;12308;50.948;4.706;2023-05-10T04:48:54;82.97;;;32.75;;
24145;SDS011;12308;50.948;4.706;2023-05-10T04:51:20;84.97;;;34.47;;
24145;SDS011;12308;50.948;4.706;2023-05-10T04:53:46;87.55;;;34.42;;
24145;SDS011;12308;50.948;4.706;2023-05-10T04:56:11;91.20;;;34.75;;
24145;SDS011;12308;50.948;4.706;2023-05-10T04:58:37;97.05;;;37.65;;
24145;SDS011;12308;50.948;4.706;2023-05-10T05:01:07;103.85;;;37.60;;
24145;SDS011;12308;50.948;4.706;2023-05-10T05:03:33;110.63;;;38.83;;
24145;SDS011;12308;50.948;4.706;2023-05-10T05:05:59;120.50;;;42.72;;
24145;SDS011;12308;50.948;4.706;2023-05-10T05:08:25;115.40;;;41.67;;
24145;SDS011;12308;50.948;4.706;2023-05-10T05:10:51;112.55;;;41.80;;
24145;SDS011;12308;50.948;4.706;2023-05-10T05:13:16;114.15;;;40.83;;
24145;SDS011;12308;50.948;4.706;2023-05-10T05:15:42;116.57;;;42.05;;
24145;SDS011;12308;50.948;4.706;2023-05-10T05:18:07;108.00;;;39.45;;
24145;SDS011;12308;50.948;4.706;2023-05-10T05:20:33;112.82;;;41.35;;
24145;SDS011;12308;50.948;4.706;2023-05-10T05:22:59;104.57;;;39.70;;
24145;SDS011;12308;50.948;4.706;2023-05-10T05:25:25;107.97;;;40.33;;
24145;SDS011;12308;50.948;4.706;2023-05-10T05:27:51;106.75;;;39.90;;
24145;SDS011;12308;50.948;4.706;2023-05-10T05:30:17;110.05;;;40.85;;
24145;SDS011;12308;50.948;4.706;2023-05-10T05:32:42;102.00;;;39.67;;
24145;SDS011;12308;50.948;4.706;2023-05-10T05:35:08;108.10;;;41.17;;
24145;SDS011;12308;50.948;4.706;2023-05-10T05:37:34;105.80;;;40.42;;
24145;SDS011;12308;50.948;4.706;2023-05-10T05:40:00;105.10;;;38.85;;
24145;SDS011;12308;50.948;4.706;2023-05-10T05:42:26;98.45;;;38.17;;
24145;SDS011;12308;50.948;4.706;2023-05-10T05:44:52;100.70;;;37.95;;
24145;SDS011;12308;50.948;4.706;2023-05-10T05:47:18;102.03;;;38.10;;
24145;SDS011;12308;50.948;4.706;2023-05-10T05:49:43;101.38;;;38.42;;
24145;SDS011;12308;50.948;4.706;2023-05-10T05:52:12;98.32;;;37.92;;
24145;SDS011;12308;50.948;4.706;2023-05-10T05:54:38;89.65;;;35.92;;
24145;SDS011;12308;50.948;4.706;2023-05-10T05:57:04;83.35;;;34.05;;
24145;SDS011;12308;50.948;4.706;2023-05-10T05:59:29;89.10;;;36.67;;
24145;SDS011;12308;50.948;4.706;2023-05-10T06:01:55;86.45;;;33.70;;
24145;SDS011;12308;50.948;4.706;2023-05-10T06:04:21;78.47;;;35.05;;
24145;SDS011;12308;50.948;4.706;2023-05-10T06:06:46;77.90;;;33.60;;
24145;SDS011;12308;50.948;4.706;2023-05-10T06:09:12;76.60;;;33.13;;
24145;SDS011;12308;50.948;4.706;2023-05-10T06:11:38;75.00;;;34.47;;
24145;SDS011;12308;50.948;4.706;2023-05-10T06:14:04;73.43;;;33.13;;
24145;SDS011;12308;50.948;4.706;2023-05-10T06:16:32;70.60;;;32.90;;
24145;SDS011;12308;50.948;4.706;2023-05-10T06:18:57;76.50;;;34.13;;
24145;SDS011;12308;50.948;4.706;2023-05-10T06:21:23;63.80;;;31.77;;
24145;SDS011;12308;50.948;4.706;2023-05-10T06:23:49;70.35;;;32.20;;
24145;SDS011;12308;50.948;4.706;2023-05-10T06:26:15;67.78;;;32.35;;
24145;SDS011;12308;50.948;4.706;2023-05-10T06:28:40;72.50;;;33.05;;
24145;SDS011;12308;50.948;4.706;2023-05-10T06:31:06;66.03;;;31.52;;
24145;SDS011;12308;50.948;4.706;2023-05-10T06:33:32;62.00;;;31.60;;
24145;SDS011;12308;50.948;4.706;2023-05-10T06:35:59;65.70;;;30.90;;
24145;SDS011;12308;50.948;4.706;2023-05-10T06:38:24;69.60;;;31.00;;
24145;SDS011;12308;50.948;4.706;2023-05-10T06:40:51;62.22;;;31.65;;
24145;SDS011;12308;50.948;4.706;2023-05-10T06:43:16;66.53;;;30.88;;
24145;SDS011;12308;50.948;4.706;2023-05-10T06:45:42;60.85;;;30.67;;
24145;SDS011;12308;50.948;4.706;2023-05-10T06:48:08;63.20;;;30.10;;
24145;SDS011;12308;50.948;4.706;2023-05-10T06:50:34;67.32;;;31.17;;
24145;SDS011;12308;50.948;4.706;2023-05-10T06:53:00;62.08;;;29.83;;
24145;SDS011;12308;50.948;4.706;2023-05-10T06:55:26;65.80;;;31.20;;
24145;SDS011;12308;50.948;4.706;2023-05-10T06:57:52;65.22;;;30.88;;
24145;SDS011;12308;50.948;4.706;2023-05-10T07:00:19;63.65;;;29.58;;
24145;SDS011;12308;50.948;4.706;2023-05-10T07:02:45;67.32;;;32.53;;
24145;SDS011;12308;50.948;4.706;2023-05-10T07:05:10;64.78;;;31.30;;
24145;SDS011;12308;50.948;4.706;2023-05-10T07:07:37;63.38;;;31.35;;
24145;SDS011;12308;50.948;4.706;2023-05-10T07:10:03;66.68;;;30.92;;
24145;SDS011;12308;50.948;4.706;2023-05-10T07:12:29;56.45;;;28.90;;
24145;SDS011;12308;50.948;4.706;2023-05-10T07:14:55;64.05;;;29.58;;
24145;SDS011;12308;50.948;4.706;2023-05-10T07:17:20;61.65;;;30.08;;
24145;SDS011;12308;50.948;4.706;2023-05-10T07:19:46;61.40;;;29.92;;
24145;SDS011;12308;50.948;4.706;2023-05-10T07:22:12;59.47;;;29.50;;
24145;SDS011;12308;50.948;4.706;2023-05-10T07:24:38;58.63;;;30.23;;
24145;SDS011;12308;50.948;4.706;2023-05-10T07:27:03;53.58;;;29.38;;
24145;SDS011;12308;50.948;4.706;2023-05-10T07:29:29;57.08;;;28.90;;
24145;SDS011;12308;50.948;4.706;2023-05-10T07:31:55;58.83;;;30.42;;
24145;SDS011;12308;50.948;4.706;2023-05-10T07:34:21;54.88;;;28.13;;
24145;SDS011;12308;50.948;4.706;2023-05-10T07:36:46;54.15;;;27.70;;
24145;SDS011;12308;50.948;4.706;2023-05-10T07:39:12;36.15;;;19.92;;
24145;SDS011;12308;50.948;4.706;2023-05-10T07:41:38;41.40;;;18.30;;
24145;SDS011;12308;50.948;4.706;2023-05-10T07:44:04;38.83;;;17.13;;
24145;SDS011;12308;50.948;4.706;2023-05-10T07:46:30;32.72;;;15.93;;
24145;SDS011;12308;50.948;4.706;2023-05-10T07:48:56;35.70;;;16.77;;
24145;SDS011;12308;50.948;4.706;2023-05-10T07:51:22;33.72;;;16.40;;
24145;SDS011;12308;50.948;4.706;2023-05-10T07:53:48;28.65;;;14.68;;
24145;SDS011;12308;50.948;4.706;2023-05-10T07:56:20;26.02;;;12.93;;
24145;SDS011;12308;50.948;4.706;2023-05-10T07:58:46;30.20;;;13.27;;
24145;SDS011;12308;50.948;4.706;2023-05-10T08:01:12;30.38;;;13.10;;
24145;SDS011;12308;50.948;4.706;2023-05-10T08:03:38;23.10;;;13.13;;
24145;SDS011;12308;50.948;4.706;2023-05-10T08:06:04;27.50;;;14.13;;
24145;SDS011;12308;50.948;4.706;2023-05-10T08:08:30;37.28;;;14.25;;
24145;SDS011;12308;50.948;4.706;2023-05-10T08:10:55;30.48;;;15.38;;
24145;SDS011;12308;50.948;4.706;2023-05-10T08:13:21;30.65;;;15.05;;
24145;SDS011;12308;50.948;4.706;2023-05-10T08:15:47;33.92;;;16.02;;
24145;SDS011;12308;50.948;4.706;2023-05-10T08:18:12;34.75;;;16.60;;
24145;SDS011;12308;50.948;4.706;2023-05-10T08:20:38;38.80;;;17.33;;
24145;SDS011;12308;50.948;4.706;2023-05-10T08:23:04;36.95;;;17.25;;
24145;SDS011;12308;50.948;4.706;2023-05-10T08:25:31;36.45;;;17.13;;
24145;SDS011;12308;50.948;4.706;2023-05-10T08:27:57;33.65;;;16.27;;
24145;SDS011;12308;50.948;4.706;2023-05-10T08:30:22;38.78;;;18.55;;
24145;SDS011;12308;50.948;4.706;2023-05-10T08:32:48;37.80;;;17.27;;
24145;SDS011;12308;50.948;4.706;2023-05-10T08:35:13;35.85;;;16.60;;
24145;SDS011;12308;50.948;4.706;2023-05-10T08:37:40;33.60;;;18.08;;
24145;SDS011;12308;50.948;4.706;2023-05-10T08:40:06;31.60;;;17.25;;
24145;SDS011;12308;50.948;4.706;2023-05-10T08:42:34;37.67;;;16.98;;
24145;SDS011;12308;50.948;4.706;2023-05-10T08:45:03;33.97;;;16.48;;
24145;SDS011;12308;50.948;4.706;2023-05-10T08:47:30;33.90;;;16.23;;
24145;SDS011;12308;50.948;4.706;2023-05-10T08:49:56;30.83;;;15.02;;
24145;SDS011;12308;50.948;4.706;2023-05-10T08:52:24;28.13;;;14.10;;
24145;SDS011;12308;50.948;4.706;2023-05-10T08:54:51;30.73;;;14.95;;
24145;SDS011;12308;50.948;4.706;2023-05-10T08:57:17;26.80;;;14.18;;
24145;SDS011;12308;50.948;4.706;2023-05-10T08:59:44;27.50;;;13.48;;
24145;SDS011;12308;50.948;4.706;2023-05-10T09:02:11;27.70;;;13.75;;
24145;SDS011;12308;50.948;4.706;2023-05-10T09:04:38;28.67;;;14.23;;
24145;SDS011;12308;50.948;4.706;2023-05-10T09:07:04;29.33;;;14.52;;
24145;SDS011;12308;50.948;4.706;2023-05-10T09:09:31;31.98;;;15.10;;
24145;SDS011;12308;50.948;4.706;2023-05-10T09:11:57;30.00;;;15.27;;
24145;SDS011;12308;50.948;4.706;2023-05-10T09:14:23;29.33;;;14.55;;
24145;SDS011;12308;50.948;4.706;2023-05-10T09:16:49;36.58;;;15.45;;
24145;SDS011;12308;50.948;4.706;2023-05-10T09:19:16;26.50;;;15.00;;
24145;SDS011;12308;50.948;4.706;2023-05-10T09:21:41;31.10;;;14.55;;
24145;SDS011;12308;50.948;4.706;2023-05-10T09:24:08;29.10;;;13.52;;
24145;SDS011;12308;50.948;4.706;2023-05-10T09:26:34;30.58;;;13.65;;
24145;SDS011;12308;50.948;4.706;2023-05-10T09:29:10;24.70;;;13.93;;
24145;SDS011;12308;50.948;4.706;2023-05-10T09:31:46;31.95;;;15.07;;
24145;SDS011;12308;50.948;4.706;2023-05-10T09:34:19;27.05;;;14.20;;
24145;SDS011;12308;50.948;4.706;2023-05-10T09:36:55;35.25;;;14.57;;
24145;SDS011;12308;50.948;4.706;2023-05-10T09:39:37;26.02;;;13.25;;
24145;SDS011;12308;50.948;4.706;2023-05-10T09:42:07;24.85;;;13.50;;
24145;SDS011;12308;50.948;4.706;2023-05-10T09:44:35;30.13;;;13.75;;
24145;SDS011;12308;50.948;4.706;2023-05-10T09:47:01;26.75;;;13.63;;
24145;SDS011;12308;50.948;4.706;2023-05-10T09:49:27;26.98;;;12.95;;
24145;SDS011;12308;50.948;4.706;2023-05-10T09:54:51;22.77;;;11.70;;
24145;SDS011;12308;50.948;4.706;2023-05-10T09:57:18;22.42;;;11.38;;
24145;SDS011;12308;50.948;4.706;2023-05-10T09:59:48;17.38;;;10.68;;
24145;SDS011;12308;50.948;4.706;2023-05-10T10:02:16;22.75;;;10.43;;
24145;SDS011;12308;50.948;4.706;2023-05-10T10:04:42;19.08;;;9.57;;
24145;SDS011;12308;50.948;4.706;2023-05-10T10:07:08;21.40;;;9.73;;
24145;SDS011;12308;50.948;4.706;2023-05-10T10:09:34;23.35;;;11.13;;
24145;SDS011;12308;50.948;4.706;2023-05-10T10:12:01;15.68;;;8.75;;
24145;SDS011;12308;50.948;4.706;2023-05-10T10:14:27;19.98;;;9.98;;
24145;SDS011;12308;50.948;4.706;2023-05-10T10:16:54;20.40;;;9.57;;
24145;SDS011;12308;50.948;4.706;2023-05-10T10:19:20;18.35;;;10.68;;
24145;SDS011;12308;50.948;4.706;2023-05-10T10:21:47;19.48;;;9.90;;
24145;SDS011;12308;50.948;4.706;2023-05-10T10:24:15;18.33;;;9.48;;
24145;SDS011;12308;50.948;4.706;2023-05-10T10:26:41;20.65;;;10.82;;
24145;SDS011;12308;50.948;4.706;2023-05-10T10:29:25;18.10;;;8.90;;
24145;SDS011;12308;50.948;4.706;2023-05-10T10:34:55;15.75;;;8.55;;
24145;SDS011;12308;50.948;4.706;2023-05-10T10:37:21;20.30;;;9.18;;
24145;SDS011;12308;50.948;4.706;2023-05-10T10:39:48;18.75;;;8.52;;
24145;SDS011;12308;50.948;4.706;2023-05-10T10:42:14;13.25;;;8.20;;
24145;SDS011;12308;50.948;4.706;2023-05-10T10:45:11;13.43;;;8.70;;
24145;SDS011;12308;50.948;4.706;2023-05-10T10:47:38;11.82;;;7.55;;
24145;SDS011;12308;50.948;4.706;2023-05-10T10:50:04;10.88;;;6.47;;
24145;SDS011;12308;50.948;4.706;2023-05-10T10:55:01;11.25;;;6.38;;
24145;SDS011;12308;50.948;4.706;2023-05-10T10:57:55;11.13;;;6.40;;
24145;SDS011;12308;50.948;4.706;2023-05-10T11:00:32;11.05;;;6.90;;
24145;SDS011;12308;50.948;4.706;2023-05-10T11:05:43;9.10;;;6.15;;
24145;SDS011;12308;50.948;4.706;2023-05-10T11:08:13;10.02;;;6.22;;
24145;SDS011;12308;50.948;4.706;2023-05-10T11:18:59;8.75;;;5.93;;
24145;SDS011;12308;50.948;4.706;2023-05-10T11:21:27;9.43;;;5.80;;
24145;SDS011;12308;50.948;4.706;2023-05-10T11:23:54;8.77;;;5.30;;
24145;SDS011;12308;50.948;4.706;2023-05-10T11:26:22;6.55;;;4.72;;
24145;SDS011;12308;50.948;4.706;2023-05-10T11:28:51;7.82;;;5.07;;
24145;SDS011;12308;50.948;4.706;2023-05-10T11:31:19;7.13;;;5.18;;
24145;SDS011;12308;50.948;4.706;2023-05-10T11:33:49;5.75;;;4.40;;
24145;SDS011;12308;50.948;4.706;2023-05-10T11:36:20;8.35;;;4.45;;
24145;SDS011;12308;50.948;4.706;2023-05-10T11:38:48;7.03;;;5.03;;
24145;SDS011;12308;50.948;4.706;2023-05-10T11:41:14;7.07;;;5.00;;
24145;SDS011;12308;50.948;4.706;2023-05-10T11:43:42;8.25;;;4.80;;
24145;SDS011;12308;50.948;4.706;2023-05-10T11:46:11;8.20;;;5.03;;
24145;SDS011;12308;50.948;4.706;2023-05-10T11:48:40;6.18;;;4.82;;
24145;SDS011;12308;50.948;4.706;2023-05-10T11:51:08;6.93;;;4.78;;
24145;SDS011;12308;50.948;4.706;2023-05-10T11:53:34;8.65;;;4.88;;
24145;SDS011;12308;50.948;4.706;2023-05-10T11:56:06;5.50;;;4.15;;
24145;SDS011;12308;50.948;4.706;2023-05-10T11:58:36;5.35;;;4.00;;
24145;SDS011;12308;50.948;4.706;2023-05-10T12:01:04;7.10;;;4.90;;
24145;SDS011;12308;50.948;4.706;2023-05-10T12:03:31;8.85;;;5.30;;
24145;SDS011;12308;50.948;4.706;2023-05-10T12:05:57;5.97;;;4.18;;
24145;SDS011;12308;50.948;4.706;2023-05-10T12:08:25;7.22;;;4.55;;
24145;SDS011;12308;50.948;4.706;2023-05-10T12:10:52;8.38;;;4.93;;
24145;SDS011;12308;50.948;4.706;2023-05-10T12:13:19;11.23;;;5.70;;
24145;SDS011;12308;50.948;4.706;2023-05-10T12:15:46;7.72;;;4.88;;
24145;SDS011;12308;50.948;4.706;2023-05-10T12:18:12;10.23;;;5.38;;
24145;SDS011;12308;50.948;4.706;2023-05-10T12:20:39;8.93;;;5.40;;
24145;SDS011;12308;50.948;4.706;2023-05-10T12:23:07;6.93;;;5.13;;
24145;SDS011;12308;50.948;4.706;2023-05-10T12:25:34;6.85;;;5.35;;
24145;SDS011;12308;50.948;4.706;2023-05-10T12:28:05;7.30;;;5.05;;
24145;SDS011;12308;50.948;4.706;2023-05-10T12:30:33;10.93;;;5.40;;
24145;SDS011;12308;50.948;4.706;2023-05-10T12:33:01;5.97;;;4.50;;
24145;SDS011;12308;50.948;4.706;2023-05-10T12:35:31;7.43;;;4.85;;
24145;SDS011;12308;50.948;4.706;2023-05-10T12:37:57;9.65;;;4.60;;
24145;SDS011;12308;50.948;4.706;2023-05-10T12:40:23;7.63;;;4.57;;
24145;SDS011;12308;50.948;4.706;2023-05-10T12:42:48;6.78;;;4.25;;
24145;SDS011;12308;50.948;4.706;2023-05-10T12:45:14;4.60;;;3.65;;
24145;SDS011;12308;50.948;4.706;2023-05-10T12:47:42;6.32;;;4.30;;
24145;SDS011;12308;50.948;4.706;2023-05-10T12:50:08;5.88;;;4.25;;
24145;SDS011;12308;50.948;4.706;2023-05-10T12:52:34;7.53;;;4.35;;
24145;SDS011;12308;50.948;4.706;2023-05-10T12:55:00;9.43;;;3.97;;
24145;SDS011;12308;50.948;4.706;2023-05-10T12:57:26;5.40;;;3.97;;
24145;SDS011;12308;50.948;4.706;2023-05-10T12:59:53;5.45;;;4.30;;
24145;SDS011;12308;50.948;4.706;2023-05-10T13:02:19;8.77;;;4.25;;
24145;SDS011;12308;50.948;4.706;2023-05-10T13:04:46;6.07;;;4.35;;
24145;SDS011;12308;50.948;4.706;2023-05-10T13:07:12;9.38;;;5.07;;
24145;SDS011;12308;50.948;4.706;2023-05-10T13:09:38;5.95;;;4.15;;
24145;SDS011;12308;50.948;4.706;2023-05-10T13:12:04;5.72;;;4.68;;
24145;SDS011;12308;50.948;4.706;2023-05-10T13:14:30;7.50;;;5.03;;
24145;SDS011;12308;50.948;4.706;2023-05-10T13:16:56;6.20;;;4.80;;
24145;SDS011;12308;50.948;4.706;2023-05-10T13:19:22;7.50;;;4.63;;
24145;SDS011;12308;50.948;4.706;2023-05-10T13:21:48;7.22;;;4.40;;
24145;SDS011;12308;50.948;4.706;2023-05-10T13:24:13;6.88;;;4.72;;
24145;SDS011;12308;50.948;4.706;2023-05-10T13:26:39;6.57;;;4.75;;
24145;SDS011;12308;50.948;4.706;2023-05-10T13:29:05;9.02;;;5.05;;
24145;SDS011;12308;50.948;4.706;2023-05-10T13:31:31;5.80;;;4.70;;
24145;SDS011;12308;50.948;4.706;2023-05-10T13:33:58;6.28;;;4.70;;
24145;SDS011;12308;50.948;4.706;2023-05-10T13:36:23;7.72;;;4.75;;
24145;SDS011;12308;50.948;4.706;2023-05-10T13:38:49;6.97;;;4.32;;
24145;SDS011;12308;50.948;4.706;2023-05-10T13:41:15;7.40;;;4.90;;
24145;SDS011;12308;50.948;4.706;2023-05-10T13:43:40;8.07;;;5.10;;
24145;SDS011;12308;50.948;4.706;2023-05-10T13:46:06;6.97;;;4.45;;
24145;SDS011;12308;50.948;4.706;2023-05-10T13:48:32;7.28;;;4.53;;
24145;SDS011;12308;50.948;4.706;2023-05-10T13:50:57;8.77;;;5.45;;
24145;SDS011;12308;50.948;4.706;2023-05-10T13:53:23;9.48;;;5.35;;
24145;SDS011;12308;50.948;4.706;2023-05-10T13:55:49;10.10;;;5.45;;
24145;SDS011;12308;50.948;4.706;2023-05-10T13:58:14;9.13;;;4.65;;
24145;SDS011;12308;50.948;4.706;2023-05-10T14:00:40;7.65;;;4.72;;
24145;SDS011;12308;50.948;4.706;2023-05-10T14:03:06;6.72;;;4.70;;
24145;SDS011;12308;50.948;4.706;2023-05-10T14:05:33;10.18;;;5.18;;
24145;SDS011;12308;50.948;4.706;2023-05-10T14:07:59;6.45;;;4.70;;
24145;SDS011;12308;50.948;4.706;2023-05-10T14:10:25;7.60;;;5.15;;
24145;SDS011;12308;50.948;4.706;2023-05-10T14:12:51;8.75;;;4.38;;
24145;SDS011;12308;50.948;4.706;2023-05-10T14:15:16;7.97;;;4.88;;
24145;SDS011;12308;50.948;4.706;2023-05-10T14:17:42;7.57;;;5.43;;
24145;SDS011;12308;50.948;4.706;2023-05-10T14:20:08;7.03;;;5.20;;
24145;SDS011;12308;50.948;4.706;2023-05-10T14:22:34;8.70;;;5.43;;
24145;SDS011;12308;50.948;4.706;2023-05-10T14:25:00;10.93;;;5.65;;
24145;SDS011;12308;50.948;4.706;2023-05-10T14:27:26;9.32;;;5.30;;
24145;SDS011;12308;50.948;4.706;2023-05-10T14:29:52;8.77;;;5.50;;
24145;SDS011;12308;50.948;4.706;2023-05-10T14:32:18;8.10;;;5.72;;
24145;SDS011;12308;50.948;4.706;2023-05-10T14:34:44;8.77;;;4.80;;
24145;SDS011;12308;50.948;4.706;2023-05-10T14:37:10;8.27;;;5.60;;
24145;SDS011;12308;50.948;4.706;2023-05-10T14:39:36;9.55;;;6.40;;
24145;SDS011;12308;50.948;4.706;2023-05-10T14:42:02;10.13;;;5.90;;
24145;SDS011;12308;50.948;4.706;2023-05-10T14:44:28;11.40;;;6.85;;
24145;SDS011;12308;50.948;4.706;2023-05-10T14:46:54;8.38;;;6.82;;
24145;SDS011;12308;50.948;4.706;2023-05-10T14:49:21;8.65;;;6.50;;
24145;SDS011;12308;50.948;4.706;2023-05-10T14:51:47;8.13;;;6.15;;
24145;SDS011;12308;50.948;4.706;2023-05-10T14:54:13;12.30;;;6.85;;
24145;SDS011;12308;50.948;4.706;2023-05-10T14:56:39;9.52;;;6.78;;
24145;SDS011;12308;50.948;4.706;2023-05-10T14:59:06;11.80;;;6.88;;
24145;SDS011;12308;50.948;4.706;2023-05-10T15:01:32;13.20;;;7.60;;
24145;SDS011;12308;50.948;4.706;2023-05-10T15:04:00;14.93;;;7.25;;
24145;SDS011;12308;50.948;4.706;2023-05-10T15:06:32;8.93;;;6.40;;